sensor_id;sensor_type;location;lat;lon;timestamp;temperature;humidity
22578;DHT22;11455;52.390;13.028;2023-01-29T00:01:44;2.90;1.00
22578;DHT22;11455;52.390;13.028;2023-01-29T00:04:10;2.90;1.00
22578;DHT22;11455;52.390;13.028;2023-01-29T00:06:35;2.80;1.00
22578;DHT22;11455;52.390;13.028;2023-01-29T00:09:01;2.80;1.00
22578;DHT22;11455;52.390;13.028;2023-01-29T00:11:29;2.80;1.00
22578;DHT22;11455;52.390;13.028;2023-01-29T00:13:56;2.80;1.00
22578;DHT22;11455;52.390;13.028;2023-01-29T00:16:22;2.90;1.00
22578;DHT22;11455;52.390;13.028;2023-01-29T00:18:48;2.90;1.00
22578;DHT22;11455;52.390;13.028;2023-01-29T00:21:17;2.80;1.00
22578;DHT22;11455;52.390;13.028;2023-01-29T00:23:43;2.80;1.00
22578;DHT22;11455;52.390;13.028;2023-01-29T00:26:09;2.90;1.00
22578;DHT22;11455;52.390;13.028;2023-01-29T00:28:37;2.90;1.00
22578;DHT22;11455;52.390;13.028;2023-01-29T00:31:09;3.00;1.00
22578;DHT22;11455;52.390;13.028;2023-01-29T00:33:35;3.00;1.00
22578;DHT22;11455;52.390;13.028;2023-01-29T00:36:02;3.00;1.00
22578;DHT22;11455;52.390;13.028;2023-01-29T00:38:27;3.00;1.00
22578;DHT22;11455;52.390;13.028;2023-01-29T00:40:55;3.00;1.00
22578;DHT22;11455;52.390;13.028;2023-01-29T00:43:39;3.10;1.00
22578;DHT22;11455;52.390;13.028;2023-01-29T00:46:23;3.10;1.00
22578;DHT22;11455;52.390;13.028;2023-01-29T00:48:49;3.10;1.00
22578;DHT22;11455;52.390;13.028;2023-01-29T00:51:15;3.10;1.00
22578;DHT22;11455;52.390;13.028;2023-01-29T00:53:40;3.10;1.00
22578;DHT22;11455;52.390;13.028;2023-01-29T00:56:06;3.20;1.00
22578;DHT22;11455;52.390;13.028;2023-01-29T00:58:31;3.20;1.00
22578;DHT22;11455;52.390;13.028;2023-01-29T01:01:00;3.20;1.00
22578;DHT22;11455;52.390;13.028;2023-01-29T01:03:27;3.20;1.00
22578;DHT22;11455;52.390;13.028;2023-01-29T01:06:02;3.10;1.00
22578;DHT22;11455;52.390;13.028;2023-01-29T01:08:28;3.10;1.00
22578;DHT22;11455;52.390;13.028;2023-01-29T01:11:15;3.10;1.00
22578;DHT22;11455;52.390;13.028;2023-01-29T01:13:41;3.20;1.00
22578;DHT22;11455;52.390;13.028;2023-01-29T01:16:10;3.20;1.00
22578;DHT22;11455;52.390;13.028;2023-01-29T01:18:37;3.10;1.00
22578;DHT22;11455;52.390;13.028;2023-01-29T01:21:02;3.10;1.00
22578;DHT22;11455;52.390;13.028;2023-01-29T01:23:28;3.20;1.00
22578;DHT22;11455;52.390;13.028;2023-01-29T01:25:54;3.20;1.00
22578;DHT22;11455;52.390;13.028;2023-01-29T01:28:19;3.20;1.00
22578;DHT22;11455;52.390;13.028;2023-01-29T01:30:45;3.20;1.00
22578;DHT22;11455;52.390;13.028;2023-01-29T01:33:11;3.20;1.00
22578;DHT22;11455;52.390;13.028;2023-01-29T01:35:37;3.20;1.00
22578;DHT22;11455;52.390;13.028;2023-01-29T01:38:03;3.10;1.00
22578;DHT22;11455;52.390;13.028;2023-01-29T01:40:29;3.10;1.00
22578;DHT22;11455;52.390;13.028;2023-01-29T01:42:55;3.10;1.00
22578;DHT22;11455;52.390;13.028;2023-01-29T01:47:55;3.10;1.00
22578;DHT22;11455;52.390;13.028;2023-01-29T01:51:08;3.20;1.00
22578;DHT22;11455;52.390;13.028;2023-01-29T01:53:10;3.20;1.00
22578;DHT22;11455;52.390;13.028;2023-01-29T01:55:38;3.20;1.00
22578;DHT22;11455;52.390;13.028;2023-01-29T01:58:08;3.20;1.00
22578;DHT22;11455;52.390;13.028;2023-01-29T02:00:34;3.20;1.00
22578;DHT22;11455;52.390;13.028;2023-01-29T02:03:00;3.20;1.00
22578;DHT22;11455;52.390;13.028;2023-01-29T02:05:47;3.20;1.00
22578;DHT22;11455;52.390;13.028;2023-01-29T02:08:34;3.10;1.00
22578;DHT22;11455;52.390;13.028;2023-01-29T02:11:22;3.10;1.00
22578;DHT22;11455;52.390;13.028;2023-01-29T02:13:48;3.10;1.00
22578;DHT22;11455;52.390;13.028;2023-01-29T02:16:24;3.10;1.00
22578;DHT22;11455;52.390;13.028;2023-01-29T02:18:50;3.10;1.00
22578;DHT22;11455;52.390;13.028;2023-01-29T02:21:20;3.10;1.00
22578;DHT22;11455;52.390;13.028;2023-01-29T02:26:38;3.20;1.00
22578;DHT22;11455;52.390;13.028;2023-01-29T02:29:09;3.20;1.00
22578;DHT22;11455;52.390;13.028;2023-01-29T02:34:20;3.20;1.00
22578;DHT22;11455;52.390;13.028;2023-01-29T02:45:13;3.00;1.00
22578;DHT22;11455;52.390;13.028;2023-01-29T02:47:41;3.00;1.00
22578;DHT22;11455;52.390;13.028;2023-01-29T02:50:13;3.10;1.00
22578;DHT22;11455;52.390;13.028;2023-01-29T02:52:42;3.10;1.00
22578;DHT22;11455;52.390;13.028;2023-01-29T02:55:19;3.10;1.00
22578;DHT22;11455;52.390;13.028;2023-01-29T02:57:46;3.10;1.00
22578;DHT22;11455;52.390;13.028;2023-01-29T03:00:23;3.10;1.00
22578;DHT22;11455;52.390;13.028;2023-01-29T03:05:30;3.10;1.00
22578;DHT22;11455;52.390;13.028;2023-01-29T03:07:59;3.10;1.00
22578;DHT22;11455;52.390;13.028;2023-01-29T03:10:46;3.10;1.00
22578;DHT22;11455;52.390;13.028;2023-01-29T03:13:14;3.00;1.00
22578;DHT22;11455;52.390;13.028;2023-01-29T03:15:44;3.00;1.00
22578;DHT22;11455;52.390;13.028;2023-01-29T03:18:24;3.10;1.00
22578;DHT22;11455;52.390;13.028;2023-01-29T03:21:03;3.10;1.00
22578;DHT22;11455;52.390;13.028;2023-01-29T03:23:50;3.00;1.00
22578;DHT22;11455;52.390;13.028;2023-01-29T03:26:35;3.00;1.00
22578;DHT22;11455;52.390;13.028;2023-01-29T03:29:23;3.00;1.00
22578;DHT22;11455;52.390;13.028;2023-01-29T03:32:07;3.00;1.00
22578;DHT22;11455;52.390;13.028;2023-01-29T03:34:43;3.00;1.00
22578;DHT22;11455;52.390;13.028;2023-01-29T03:39:39;3.00;1.00
22578;DHT22;11455;52.390;13.028;2023-01-29T03:42:18;3.10;1.00
22578;DHT22;11455;52.390;13.028;2023-01-29T03:50:08;3.10;1.00
22578;DHT22;11455;52.390;13.028;2023-01-29T03:58:32;3.10;1.00
22578;DHT22;11455;52.390;13.028;2023-01-29T04:01:01;3.10;1.00
22578;DHT22;11455;52.390;13.028;2023-01-29T04:03:37;3.10;1.00
22578;DHT22;11455;52.390;13.028;2023-01-29T04:11:10;3.00;1.00
22578;DHT22;11455;52.390;13.028;2023-01-29T04:13:37;3.00;1.00
22578;DHT22;11455;52.390;13.028;2023-01-29T04:16:04;3.00;1.00
22578;DHT22;11455;52.390;13.028;2023-01-29T04:18:55;3.10;1.00
22578;DHT22;11455;52.390;13.028;2023-01-29T04:21:28;3.00;1.00
22578;DHT22;11455;52.390;13.028;2023-01-29T04:23:56;3.00;1.00
22578;DHT22;11455;52.390;13.028;2023-01-29T04:34:46;3.00;10.50
22578;DHT22;11455;52.390;13.028;2023-01-29T04:37:17;3.00;13.70
22578;DHT22;11455;52.390;13.028;2023-01-29T04:39:54;3.00;19.60
22578;DHT22;11455;52.390;13.028;2023-01-29T04:42:30;2.90;33.40
22578;DHT22;11455;52.390;13.028;2023-01-29T04:45:12;2.90;41.90
22578;DHT22;11455;52.390;13.028;2023-01-29T04:50:17;3.00;43.50
22578;DHT22;11455;52.390;13.028;2023-01-29T04:52:49;3.00;55.60
22578;DHT22;11455;52.390;13.028;2023-01-29T04:55:32;3.00;45.90
22578;DHT22;11455;52.390;13.028;2023-01-29T04:58:11;3.10;45.70
22578;DHT22;11455;52.390;13.028;2023-01-29T05:00:39;3.10;55.90
22578;DHT22;11455;52.390;13.028;2023-01-29T05:03:06;3.10;65.50
22578;DHT22;11455;52.390;13.028;2023-01-29T05:05:34;3.10;64.50
22578;DHT22;11455;52.390;13.028;2023-01-29T05:08:03;3.10;74.60
22578;DHT22;11455;52.390;13.028;2023-01-29T05:10:29;3.20;79.50
22578;DHT22;11455;52.390;13.028;2023-01-29T05:12:59;3.20;80.90
22578;DHT22;11455;52.390;13.028;2023-01-29T05:15:26;3.20;91.50
22578;DHT22;11455;52.390;13.028;2023-01-29T05:17:54;3.20;94.90
22578;DHT22;11455;52.390;13.028;2023-01-29T05:20:26;3.20;99.90
22578;DHT22;11455;52.390;13.028;2023-01-29T05:22:51;3.30;99.90
22578;DHT22;11455;52.390;13.028;2023-01-29T05:25:28;3.30;99.90
22578;DHT22;11455;52.390;13.028;2023-01-29T05:27:54;3.20;99.90
22578;DHT22;11455;52.390;13.028;2023-01-29T05:30:36;3.30;99.90
22578;DHT22;11455;52.390;13.028;2023-01-29T05:33:03;3.30;99.90
22578;DHT22;11455;52.390;13.028;2023-01-29T05:35:29;3.40;99.90
22578;DHT22;11455;52.390;13.028;2023-01-29T05:37:55;3.30;99.90
22578;DHT22;11455;52.390;13.028;2023-01-29T05:40:23;3.30;99.90
22578;DHT22;11455;52.390;13.028;2023-01-29T05:42:49;3.30;99.90
22578;DHT22;11455;52.390;13.028;2023-01-29T05:45:15;3.30;99.90
22578;DHT22;11455;52.390;13.028;2023-01-29T05:47:41;3.30;99.90
22578;DHT22;11455;52.390;13.028;2023-01-29T05:50:07;3.30;99.90
22578;DHT22;11455;52.390;13.028;2023-01-29T05:52:33;3.30;99.90
22578;DHT22;11455;52.390;13.028;2023-01-29T05:54:58;3.40;99.90
22578;DHT22;11455;52.390;13.028;2023-01-29T05:57:24;3.40;99.90
22578;DHT22;11455;52.390;13.028;2023-01-29T05:59:50;3.40;99.90
22578;DHT22;11455;52.390;13.028;2023-01-29T06:02:15;3.40;99.90
22578;DHT22;11455;52.390;13.028;2023-01-29T06:04:43;3.40;99.90
22578;DHT22;11455;52.390;13.028;2023-01-29T06:07:09;3.40;99.90
22578;DHT22;11455;52.390;13.028;2023-01-29T06:09:34;3.40;99.90
22578;DHT22;11455;52.390;13.028;2023-01-29T06:12:00;3.40;99.90
22578;DHT22;11455;52.390;13.028;2023-01-29T06:14:25;3.40;99.90
22578;DHT22;11455;52.390;13.028;2023-01-29T06:16:51;3.30;99.90
22578;DHT22;11455;52.390;13.028;2023-01-29T06:19:17;3.30;99.90
22578;DHT22;11455;52.390;13.028;2023-01-29T06:21:42;3.30;99.90
22578;DHT22;11455;52.390;13.028;2023-01-29T06:24:08;3.40;99.90
22578;DHT22;11455;52.390;13.028;2023-01-29T06:26:36;3.30;99.90
22578;DHT22;11455;52.390;13.028;2023-01-29T06:29:01;3.30;99.90
22578;DHT22;11455;52.390;13.028;2023-01-29T06:31:27;3.30;99.90
22578;DHT22;11455;52.390;13.028;2023-01-29T06:33:55;3.40;99.90
22578;DHT22;11455;52.390;13.028;2023-01-29T06:36:21;3.30;99.90
22578;DHT22;11455;52.390;13.028;2023-01-29T06:38:47;3.40;99.90
22578;DHT22;11455;52.390;13.028;2023-01-29T06:41:13;3.40;99.90
22578;DHT22;11455;52.390;13.028;2023-01-29T06:43:42;3.40;99.90
22578;DHT22;11455;52.390;13.028;2023-01-29T06:46:08;3.40;99.90
22578;DHT22;11455;52.390;13.028;2023-01-29T06:48:33;3.40;99.90
22578;DHT22;11455;52.390;13.028;2023-01-29T06:51:03;3.40;99.90
22578;DHT22;11455;52.390;13.028;2023-01-29T06:53:29;3.30;99.90
22578;DHT22;11455;52.390;13.028;2023-01-29T06:55:57;3.30;99.90
22578;DHT22;11455;52.390;13.028;2023-01-29T06:58:23;3.30;99.90
22578;DHT22;11455;52.390;13.028;2023-01-29T07:00:49;3.40;99.90
22578;DHT22;11455;52.390;13.028;2023-01-29T07:03:14;3.40;99.90
22578;DHT22;11455;52.390;13.028;2023-01-29T07:05:40;3.50;99.90
22578;DHT22;11455;52.390;13.028;2023-01-29T07:08:06;3.40;99.90
22578;DHT22;11455;52.390;13.028;2023-01-29T07:10:31;3.30;99.90
22578;DHT22;11455;52.390;13.028;2023-01-29T07:12:57;3.30;99.90
22578;DHT22;11455;52.390;13.028;2023-01-29T07:15:23;3.30;99.90
22578;DHT22;11455;52.390;13.028;2023-01-29T07:20:22;3.30;99.90
22578;DHT22;11455;52.390;13.028;2023-01-29T07:22:47;3.30;99.90
22578;DHT22;11455;52.390;13.028;2023-01-29T07:25:13;3.40;99.90
22578;DHT22;11455;52.390;13.028;2023-01-29T07:27:39;3.30;99.90
22578;DHT22;11455;52.390;13.028;2023-01-29T07:30:04;3.30;99.90
22578;DHT22;11455;52.390;13.028;2023-01-29T07:32:30;3.30;99.90
22578;DHT22;11455;52.390;13.028;2023-01-29T07:34:56;3.20;99.90
22578;DHT22;11455;52.390;13.028;2023-01-29T07:37:22;3.20;99.90
22578;DHT22;11455;52.390;13.028;2023-01-29T07:39:47;3.30;99.90
22578;DHT22;11455;52.390;13.028;2023-01-29T07:42:13;3.40;99.90
22578;DHT22;11455;52.390;13.028;2023-01-29T07:44:39;3.50;99.90
22578;DHT22;11455;52.390;13.028;2023-01-29T07:47:07;3.50;99.90
22578;DHT22;11455;52.390;13.028;2023-01-29T07:49:33;3.50;99.90
22578;DHT22;11455;52.390;13.028;2023-01-29T07:51:58;3.50;99.90
22578;DHT22;11455;52.390;13.028;2023-01-29T07:54:24;3.60;99.90
22578;DHT22;11455;52.390;13.028;2023-01-29T07:56:50;3.50;99.90
22578;DHT22;11455;52.390;13.028;2023-01-29T07:59:15;3.60;99.90
22578;DHT22;11455;52.390;13.028;2023-01-29T08:01:41;3.60;99.90
22578;DHT22;11455;52.390;13.028;2023-01-29T08:04:10;3.60;99.90
22578;DHT22;11455;52.390;13.028;2023-01-29T08:06:35;3.60;99.90
22578;DHT22;11455;52.390;13.028;2023-01-29T08:09:04;3.60;99.90
22578;DHT22;11455;52.390;13.028;2023-01-29T08:11:29;3.60;99.90
22578;DHT22;11455;52.390;13.028;2023-01-29T08:13:55;3.60;99.90
22578;DHT22;11455;52.390;13.028;2023-01-29T08:16:21;3.60;99.90
22578;DHT22;11455;52.390;13.028;2023-01-29T08:18:47;3.70;99.90
22578;DHT22;11455;52.390;13.028;2023-01-29T08:21:13;3.60;99.90
22578;DHT22;11455;52.390;13.028;2023-01-29T08:23:39;3.60;99.90
22578;DHT22;11455;52.390;13.028;2023-01-29T08:26:07;3.60;99.90
22578;DHT22;11455;52.390;13.028;2023-01-29T08:28:33;3.60;99.90
22578;DHT22;11455;52.390;13.028;2023-01-29T08:30:59;3.60;99.90
22578;DHT22;11455;52.390;13.028;2023-01-29T08:33:26;3.60;99.90
22578;DHT22;11455;52.390;13.028;2023-01-29T08:35:53;3.50;99.90
22578;DHT22;11455;52.390;13.028;2023-01-29T08:38:19;3.60;99.90
22578;DHT22;11455;52.390;13.028;2023-01-29T08:40:44;3.60;99.90
22578;DHT22;11455;52.390;13.028;2023-01-29T08:43:10;3.50;99.90
22578;DHT22;11455;52.390;13.028;2023-01-29T08:45:38;3.50;99.90
22578;DHT22;11455;52.390;13.028;2023-01-29T08:48:04;3.50;99.90
22578;DHT22;11455;52.390;13.028;2023-01-29T08:50:29;3.50;99.90
22578;DHT22;11455;52.390;13.028;2023-01-29T08:52:59;3.50;99.90
22578;DHT22;11455;52.390;13.028;2023-01-29T08:55:25;3.50;99.90
22578;DHT22;11455;52.390;13.028;2023-01-29T08:57:51;3.70;99.90
22578;DHT22;11455;52.390;13.028;2023-01-29T09:00:17;3.70;99.90
22578;DHT22;11455;52.390;13.028;2023-01-29T09:02:43;3.70;99.90
22578;DHT22;11455;52.390;13.028;2023-01-29T09:05:08;3.60;99.90
22578;DHT22;11455;52.390;13.028;2023-01-29T09:07:34;3.70;99.90
22578;DHT22;11455;52.390;13.028;2023-01-29T09:10:00;3.80;99.90
22578;DHT22;11455;52.390;13.028;2023-01-29T09:12:26;3.80;99.90
22578;DHT22;11455;52.390;13.028;2023-01-29T09:14:51;3.80;99.90
22578;DHT22;11455;52.390;13.028;2023-01-29T09:17:17;3.90;99.90
22578;DHT22;11455;52.390;13.028;2023-01-29T09:19:42;3.90;99.90
22578;DHT22;11455;52.390;13.028;2023-01-29T09:22:08;3.90;99.90
22578;DHT22;11455;52.390;13.028;2023-01-29T09:24:34;3.90;99.90
22578;DHT22;11455;52.390;13.028;2023-01-29T09:27:00;3.90;99.90
22578;DHT22;11455;52.390;13.028;2023-01-29T09:29:25;3.90;99.90
22578;DHT22;11455;52.390;13.028;2023-01-29T09:31:51;4.00;99.90
22578;DHT22;11455;52.390;13.028;2023-01-29T09:34:17;4.00;99.90
22578;DHT22;11455;52.390;13.028;2023-01-29T09:36:42;4.00;99.90
22578;DHT22;11455;52.390;13.028;2023-01-29T09:39:11;4.10;99.90
22578;DHT22;11455;52.390;13.028;2023-01-29T09:41:45;4.00;99.90
22578;DHT22;11455;52.390;13.028;2023-01-29T09:44:32;3.90;99.90
22578;DHT22;11455;52.390;13.028;2023-01-29T09:46:59;4.00;99.90
22578;DHT22;11455;52.390;13.028;2023-01-29T09:49:31;4.00;99.90
22578;DHT22;11455;52.390;13.028;2023-01-29T09:52:03;4.00;99.90
22578;DHT22;11455;52.390;13.028;2023-01-29T09:54:31;4.00;99.90
22578;DHT22;11455;52.390;13.028;2023-01-29T09:56:58;4.10;99.90
22578;DHT22;11455;52.390;13.028;2023-01-29T09:59:25;4.10;99.90
22578;DHT22;11455;52.390;13.028;2023-01-29T10:01:58;4.10;99.90
22578;DHT22;11455;52.390;13.028;2023-01-29T10:07:04;4.20;99.90
22578;DHT22;11455;52.390;13.028;2023-01-29T10:09:38;4.30;99.90
22578;DHT22;11455;52.390;13.028;2023-01-29T10:17:51;4.40;99.90
22578;DHT22;11455;52.390;13.028;2023-01-29T10:25:52;4.30;99.90
22578;DHT22;11455;52.390;13.028;2023-01-29T10:28:19;4.40;99.90
22578;DHT22;11455;52.390;13.028;2023-01-29T10:30:49;4.50;99.90
22578;DHT22;11455;52.390;13.028;2023-01-29T10:33:21;4.50;99.90
22578;DHT22;11455;52.390;13.028;2023-01-29T10:35:51;4.50;99.90
22578;DHT22;11455;52.390;13.028;2023-01-29T10:40:52;4.60;99.90
22578;DHT22;11455;52.390;13.028;2023-01-29T11:01:03;5.00;99.90
22578;DHT22;11455;52.390;13.028;2023-01-29T11:03:29;5.00;85.60
22578;DHT22;11455;52.390;13.028;2023-01-29T11:11:07;4.90;96.90
22578;DHT22;11455;52.390;13.028;2023-01-29T11:13:37;4.90;89.60
22578;DHT22;11455;52.390;13.028;2023-01-29T11:16:04;4.90;72.40
22578;DHT22;11455;52.390;13.028;2023-01-29T11:18:48;4.90;79.20
22578;DHT22;11455;52.390;13.028;2023-01-29T11:21:14;4.90;94.80
22578;DHT22;11455;52.390;13.028;2023-01-29T11:23:40;4.90;81.90
22578;DHT22;11455;52.390;13.028;2023-01-29T11:26:06;4.90;91.10
22578;DHT22;11455;52.390;13.028;2023-01-29T11:31:00;4.90;74.80
22578;DHT22;11455;52.390;13.028;2023-01-29T11:33:26;5.00;91.10
22578;DHT22;11455;52.390;13.028;2023-01-29T11:35:53;4.90;66.70
22578;DHT22;11455;52.390;13.028;2023-01-29T11:38:21;4.80;83.30
22578;DHT22;11455;52.390;13.028;2023-01-29T11:40:48;4.80;84.90
22578;DHT22;11455;52.390;13.028;2023-01-29T11:45:42;4.70;99.90
22578;DHT22;11455;52.390;13.028;2023-01-29T11:48:13;4.70;97.60
22578;DHT22;11455;52.390;13.028;2023-01-29T11:50:39;4.80;97.20
22578;DHT22;11455;52.390;13.028;2023-01-29T11:53:05;4.80;91.50
22578;DHT22;11455;52.390;13.028;2023-01-29T11:55:34;4.80;93.20
22578;DHT22;11455;52.390;13.028;2023-01-29T12:00:30;4.80;93.10
22578;DHT22;11455;52.390;13.028;2023-01-29T12:05:52;4.90;75.80
22578;DHT22;11455;52.390;13.028;2023-01-29T12:08:18;4.90;72.70
22578;DHT22;11455;52.390;13.028;2023-01-29T12:10:51;4.90;89.10
22578;DHT22;11455;52.390;13.028;2023-01-29T12:13:31;4.90;93.10
22578;DHT22;11455;52.390;13.028;2023-01-29T12:16:17;4.90;95.70
22578;DHT22;11455;52.390;13.028;2023-01-29T12:18:47;4.90;93.60
22578;DHT22;11455;52.390;13.028;2023-01-29T12:21:14;5.00;91.70
22578;DHT22;11455;52.390;13.028;2023-01-29T12:26:15;5.00;92.00
22578;DHT22;11455;52.390;13.028;2023-01-29T12:34:15;5.00;91.70
22578;DHT22;11455;52.390;13.028;2023-01-29T12:37:09;5.00;92.70
22578;DHT22;11455;52.390;13.028;2023-01-29T12:39:29;4.90;95.90
22578;DHT22;11455;52.390;13.028;2023-01-29T12:44:29;4.90;99.90
22578;DHT22;11455;52.390;13.028;2023-01-29T12:46:58;4.90;96.40
22578;DHT22;11455;52.390;13.028;2023-01-29T12:49:26;4.90;99.70
22578;DHT22;11455;52.390;13.028;2023-01-29T12:52:03;5.00;95.10
22578;DHT22;11455;52.390;13.028;2023-01-29T12:54:36;5.00;82.20
22578;DHT22;11455;52.390;13.028;2023-01-29T12:57:03;4.80;96.40
22578;DHT22;11455;52.390;13.028;2023-01-29T12:59:38;4.80;99.90
22578;DHT22;11455;52.390;13.028;2023-01-29T13:02:11;4.80;99.90
22578;DHT22;11455;52.390;13.028;2023-01-29T13:04:42;4.80;99.90
22578;DHT22;11455;52.390;13.028;2023-01-29T13:07:11;4.90;99.90
22578;DHT22;11455;52.390;13.028;2023-01-29T13:09:40;4.90;99.10
22578;DHT22;11455;52.390;13.028;2023-01-29T13:12:14;5.00;94.40
22578;DHT22;11455;52.390;13.028;2023-01-29T13:14:58;5.10;87.10
22578;DHT22;11455;52.390;13.028;2023-01-29T13:19:57;5.00;96.40
22578;DHT22;11455;52.390;13.028;2023-01-29T13:22:24;5.00;99.90
22578;DHT22;11455;52.390;13.028;2023-01-29T13:24:51;4.90;99.90
22578;DHT22;11455;52.390;13.028;2023-01-29T13:27:19;4.90;99.90
22578;DHT22;11455;52.390;13.028;2023-01-29T13:29:45;4.90;99.90
22578;DHT22;11455;52.390;13.028;2023-01-29T13:32:11;4.90;99.90
22578;DHT22;11455;52.390;13.028;2023-01-29T13:34:44;5.00;99.90
22578;DHT22;11455;52.390;13.028;2023-01-29T13:39:55;5.00;99.90
22578;DHT22;11455;52.390;13.028;2023-01-29T13:42:33;5.00;99.90
22578;DHT22;11455;52.390;13.028;2023-01-29T13:45:01;5.00;99.90
22578;DHT22;11455;52.390;13.028;2023-01-29T13:47:30;5.00;99.90
22578;DHT22;11455;52.390;13.028;2023-01-29T13:54:56;4.90;99.90
22578;DHT22;11455;52.390;13.028;2023-01-29T13:57:33;4.90;99.90
22578;DHT22;11455;52.390;13.028;2023-01-29T13:59:59;4.90;99.90
22578;DHT22;11455;52.390;13.028;2023-01-29T14:02:26;4.90;99.90
22578;DHT22;11455;52.390;13.028;2023-01-29T14:12:42;4.90;99.90
22578;DHT22;11455;52.390;13.028;2023-01-29T14:20:29;4.70;99.90
22578;DHT22;11455;52.390;13.028;2023-01-29T14:22:56;4.60;99.90
22578;DHT22;11455;52.390;13.028;2023-01-29T14:25:27;4.60;99.90
22578;DHT22;11455;52.390;13.028;2023-01-29T14:27:57;4.60;99.90
22578;DHT22;11455;52.390;13.028;2023-01-29T14:30:23;4.60;99.90
22578;DHT22;11455;52.390;13.028;2023-01-29T14:32:51;4.60;99.90
22578;DHT22;11455;52.390;13.028;2023-01-29T14:35:18;4.60;99.90
22578;DHT22;11455;52.390;13.028;2023-01-29T14:37:45;4.50;99.90
22578;DHT22;11455;52.390;13.028;2023-01-29T14:42:59;4.60;99.90
22578;DHT22;11455;52.390;13.028;2023-01-29T14:45:27;4.50;99.90
22578;DHT22;11455;52.390;13.028;2023-01-29T14:58:05;4.20;99.90
22578;DHT22;11455;52.390;13.028;2023-01-29T15:00:39;4.20;99.90
22578;DHT22;11455;52.390;13.028;2023-01-29T15:03:12;4.10;99.90
22578;DHT22;11455;52.390;13.028;2023-01-29T15:05:40;4.00;99.90
22578;DHT22;11455;52.390;13.028;2023-01-29T15:08:22;4.00;99.90
22578;DHT22;11455;52.390;13.028;2023-01-29T15:10:58;4.00;99.90
22578;DHT22;11455;52.390;13.028;2023-01-29T15:13:49;4.00;99.90
22578;DHT22;11455;52.390;13.028;2023-01-29T15:16:22;4.00;99.90
22578;DHT22;11455;52.390;13.028;2023-01-29T15:18:49;3.90;99.90
22578;DHT22;11455;52.390;13.028;2023-01-29T15:21:17;3.90;99.90
22578;DHT22;11455;52.390;13.028;2023-01-29T15:23:43;3.90;99.90
22578;DHT22;11455;52.390;13.028;2023-01-29T15:26:10;3.90;99.90
22578;DHT22;11455;52.390;13.028;2023-01-29T15:28:37;3.90;99.90
22578;DHT22;11455;52.390;13.028;2023-01-29T15:31:04;3.90;99.90
22578;DHT22;11455;52.390;13.028;2023-01-29T15:33:30;3.90;99.90
22578;DHT22;11455;52.390;13.028;2023-01-29T15:36:00;3.80;99.90
22578;DHT22;11455;52.390;13.028;2023-01-29T15:38:26;3.70;99.90
22578;DHT22;11455;52.390;13.028;2023-01-29T15:43:24;3.80;99.90
22578;DHT22;11455;52.390;13.028;2023-01-29T15:45:51;3.80;99.90
22578;DHT22;11455;52.390;13.028;2023-01-29T15:48:22;3.80;99.90
22578;DHT22;11455;52.390;13.028;2023-01-29T15:50:51;3.80;99.90
22578;DHT22;11455;52.390;13.028;2023-01-29T15:53:19;3.70;99.90
22578;DHT22;11455;52.390;13.028;2023-01-29T15:55:45;3.80;99.90
22578;DHT22;11455;52.390;13.028;2023-01-29T15:58:16;3.80;99.90
22578;DHT22;11455;52.390;13.028;2023-01-29T16:00:53;3.80;99.90
22578;DHT22;11455;52.390;13.028;2023-01-29T16:03:20;3.80;99.90
22578;DHT22;11455;52.390;13.028;2023-01-29T16:05:46;3.80;99.90
22578;DHT22;11455;52.390;13.028;2023-01-29T16:08:12;3.90;99.90
22578;DHT22;11455;52.390;13.028;2023-01-29T16:10:39;3.90;99.90
22578;DHT22;11455;52.390;13.028;2023-01-29T16:13:25;3.80;99.90
22578;DHT22;11455;52.390;13.028;2023-01-29T16:16:04;3.80;99.90
22578;DHT22;11455;52.390;13.028;2023-01-29T16:18:32;3.80;99.90
22578;DHT22;11455;52.390;13.028;2023-01-29T16:21:00;3.90;99.90
22578;DHT22;11455;52.390;13.028;2023-01-29T16:23:28;3.90;99.90
22578;DHT22;11455;52.390;13.028;2023-01-29T16:25:55;3.90;99.90
22578;DHT22;11455;52.390;13.028;2023-01-29T16:28:25;4.00;99.90
22578;DHT22;11455;52.390;13.028;2023-01-29T16:30:55;4.00;99.90
22578;DHT22;11455;52.390;13.028;2023-01-29T16:33:22;4.00;99.90
22578;DHT22;11455;52.390;13.028;2023-01-29T16:35:52;4.00;99.90
22578;DHT22;11455;52.390;13.028;2023-01-29T16:38:22;3.90;99.90
22578;DHT22;11455;52.390;13.028;2023-01-29T16:41:13;3.90;99.90
22578;DHT22;11455;52.390;13.028;2023-01-29T16:48:44;3.90;99.90
22578;DHT22;11455;52.390;13.028;2023-01-29T16:51:14;3.90;99.90
22578;DHT22;11455;52.390;13.028;2023-01-29T16:53:51;3.80;99.90
22578;DHT22;11455;52.390;13.028;2023-01-29T16:56:17;3.80;99.90
22578;DHT22;11455;52.390;13.028;2023-01-29T16:58:48;3.90;99.90
22578;DHT22;11455;52.390;13.028;2023-01-29T17:01:13;3.80;99.90
22578;DHT22;11455;52.390;13.028;2023-01-29T17:03:39;3.80;99.90
22578;DHT22;11455;52.390;13.028;2023-01-29T17:06:12;3.80;99.90
22578;DHT22;11455;52.390;13.028;2023-01-29T17:08:39;3.70;99.90
22578;DHT22;11455;52.390;13.028;2023-01-29T17:11:05;3.80;99.90
22578;DHT22;11455;52.390;13.028;2023-01-29T17:13:39;3.80;99.90
22578;DHT22;11455;52.390;13.028;2023-01-29T17:18:46;3.80;99.90
22578;DHT22;11455;52.390;13.028;2023-01-29T17:21:12;3.80;99.90
22578;DHT22;11455;52.390;13.028;2023-01-29T17:23:37;3.70;99.90
22578;DHT22;11455;52.390;13.028;2023-01-29T17:26:04;3.70;99.90
22578;DHT22;11455;52.390;13.028;2023-01-29T17:28:31;3.80;99.90
22578;DHT22;11455;52.390;13.028;2023-01-29T17:30:59;3.70;99.90
22578;DHT22;11455;52.390;13.028;2023-01-29T17:33:25;3.70;99.90
22578;DHT22;11455;52.390;13.028;2023-01-29T17:35:50;3.70;99.90
22578;DHT22;11455;52.390;13.028;2023-01-29T17:38:17;3.60;99.90
22578;DHT22;11455;52.390;13.028;2023-01-29T17:40:48;3.60;99.90
22578;DHT22;11455;52.390;13.028;2023-01-29T17:43:15;3.70;99.90
22578;DHT22;11455;52.390;13.028;2023-01-29T17:45:41;3.70;99.90
22578;DHT22;11455;52.390;13.028;2023-01-29T17:48:29;3.70;99.90
22578;DHT22;11455;52.390;13.028;2023-01-29T17:50:58;3.60;99.90
22578;DHT22;11455;52.390;13.028;2023-01-29T17:53:24;3.70;99.90
22578;DHT22;11455;52.390;13.028;2023-01-29T17:55:50;3.70;99.90
22578;DHT22;11455;52.390;13.028;2023-01-29T17:58:20;3.60;99.90
22578;DHT22;11455;52.390;13.028;2023-01-29T18:00:49;3.60;99.90
22578;DHT22;11455;52.390;13.028;2023-01-29T18:03:14;3.60;99.90
22578;DHT22;11455;52.390;13.028;2023-01-29T18:05:40;3.70;99.90
22578;DHT22;11455;52.390;13.028;2023-01-29T18:08:15;3.70;99.90
22578;DHT22;11455;52.390;13.028;2023-01-29T18:10:44;3.80;99.90
22578;DHT22;11455;52.390;13.028;2023-01-29T18:13:10;3.80;99.90
22578;DHT22;11455;52.390;13.028;2023-01-29T18:15:35;3.70;99.90
22578;DHT22;11455;52.390;13.028;2023-01-29T18:18:02;3.70;99.90
22578;DHT22;11455;52.390;13.028;2023-01-29T18:20:31;3.70;99.90
22578;DHT22;11455;52.390;13.028;2023-01-29T18:23:01;3.70;99.90
22578;DHT22;11455;52.390;13.028;2023-01-29T18:25:29;3.70;99.90